Time;durP1;ratioP1;P1;durP2;ratioP2;P2;SDS_P1;SDS_P2;PMS_P1;PMS_P2;Temp;Humidity;BMP_temperature;BMP_pressure;BME280_temperature;BME280_humidity;BME280_pressure;Samples;Min_cycle;Max_cycle;Signal;HPM_P1;HPM_P2
2023/10/26 00:01:11;;;;;;;9.20;2.70;;;16.90;99.90;;;;;;5072653;28;20029;-84
2023/10/26 00:03:37;;;;;;;9.00;2.63;;;16.90;99.90;;;;;;5072683;28;20384;-84
2023/10/26 00:06:03;;;;;;;16.05;3.88;;;16.90;99.90;;;;;;5072650;28;20032;-83
2023/10/26 00:08:28;;;;;;;10.35;2.40;;;16.90;99.90;;;;;;5072307;28;20009;-83
2023/10/26 00:10:54;;;;;;;10.07;3.30;;;16.90;99.90;;;;;;5072530;28;20028;-82
2023/10/26 00:13:23;;;;;;;7.55;2.58;;;16.90;99.90;;;;;;5054213;28;20019;-84
2023/10/26 00:15:49;;;;;;;11.60;2.88;;;16.90;99.90;;;;;;5072342;28;20036;-83
2023/10/26 00:18:15;;;;;;;10.10;2.80;;;16.80;99.90;;;;;;5072194;28;20031;-82
2023/10/26 00:20:41;;;;;;;13.48;3.00;;;16.80;99.90;;;;;;5072405;28;20491;-83
2023/10/26 00:23:07;;;;;;;7.72;2.60;;;16.80;99.90;;;;;;5072274;28;20029;-83
2023/10/26 00:25:33;;;;;;;7.50;2.30;;;16.80;99.90;;;;;;5072622;28;20422;-84
2023/10/26 00:27:59;;;;;;;10.13;2.63;;;16.80;99.90;;;;;;5071942;28;20497;-83
2023/10/26 00:30:24;;;;;;;9.43;2.80;;;16.80;99.90;;;;;;5072445;28;20028;-83
2023/10/26 00:32:50;;;;;;;14.43;2.60;;;16.80;99.90;;;;;;5071954;28;20037;-84
2023/10/26 00:35:16;;;;;;;8.88;2.78;;;16.80;99.90;;;;;;5072255;28;20039;-84
2023/10/26 00:37:42;;;;;;;9.10;2.75;;;16.80;99.90;;;;;;5072356;28;20050;-82
2023/10/26 00:40:08;;;;;;;8.02;2.63;;;16.80;99.90;;;;;;5072507;28;20373;-83
2023/10/26 00:42:34;;;;;;;10.88;2.60;;;16.80;99.90;;;;;;5072371;28;20054;-82
2023/10/26 00:45:03;;;;;;;10.23;2.60;;;16.70;99.90;;;;;;5072101;28;20067;-82
2023/10/26 00:47:31;;;;;;;10.38;2.45;;;16.70;99.90;;;;;;5072064;28;20029;-77
2023/10/26 00:49:59;;;;;;;7.50;2.25;;;16.80;99.90;;;;;;5072309;28;20456;-83
2023/10/26 00:52:26;;;;;;;8.88;2.53;;;16.70;99.90;;;;;;5072443;28;20027;-83
2023/10/26 00:54:53;;;;;;;8.48;2.60;;;16.70;99.90;;;;;;5072336;28;20396;-83
2023/10/26 00:57:24;;;;;;;8.68;2.28;;;16.80;99.90;;;;;;5072530;28;20025;-82
2023/10/26 00:59:54;;;;;;;8.98;2.72;;;16.70;99.90;;;;;;5069029;28;20028;-82
2023/10/26 01:02:21;;;;;;;11.40;2.60;;;16.70;99.90;;;;;;5069532;28;20052;-82
2023/10/26 01:04:49;;;;;;;6.80;2.80;;;16.80;99.90;;;;;;5070638;28;20396;-83
2023/10/26 01:07:15;;;;;;;10.50;2.65;;;16.80;99.90;;;;;;5071489;28;20029;-81
2023/10/26 01:09:42;;;;;;;8.82;2.97;;;16.70;99.90;;;;;;5053989;28;20050;-81
2023/10/26 01:12:13;;;;;;;9.73;2.55;;;16.70;99.90;;;;;;5071316;28;20036;-83
2023/10/26 01:14:39;;;;;;;7.57;2.50;;;16.70;99.90;;;;;;5071741;28;20056;-81
2023/10/26 01:17:04;;;;;;;9.27;2.88;;;16.70;99.90;;;;;;5071869;28;20067;-80
2023/10/26 01:19:41;;;;;;;12.95;3.05;;;16.70;99.90;;;;;;5071924;28;20024;-83
2023/10/26 01:22:08;;;;;;;13.10;2.60;;;16.70;99.90;;;;;;5074446;28;20496;-82
2023/10/26 01:24:34;;;;;;;9.32;2.45;;;16.70;99.90;;;;;;5075374;28;20378;-84
2023/10/26 01:27:03;;;;;;;9.77;2.65;;;16.70;99.90;;;;;;5075593;28;20415;-82
2023/10/26 01:29:28;;;;;;;7.03;2.60;;;16.70;99.90;;;;;;5074892;28;20033;-82
2023/10/26 01:31:54;;;;;;;7.07;3.03;;;16.70;99.90;;;;;;5075262;28;20033;-82
2023/10/26 01:34:20;;;;;;;10.55;2.70;;;16.70;99.90;;;;;;5074961;28;20049;-83
2023/10/26 01:36:51;;;;;;;5.13;2.33;;;16.70;99.90;;;;;;5074851;28;20035;-83
2023/10/26 01:39:20;;;;;;;5.95;2.72;;;16.70;99.90;;;;;;5056685;28;20025;-82
2023/10/26 01:41:47;;;;;;;5.20;2.15;;;16.70;99.90;;;;;;5075125;28;20029;-83
2023/10/26 01:44:13;;;;;;;10.32;3.28;;;16.60;99.90;;;;;;5074977;28;20146;-83
2023/10/26 01:46:39;;;;;;;8.77;2.60;;;16.60;99.90;;;;;;5075111;28;20392;-80
2023/10/26 01:49:05;;;;;;;6.50;2.50;;;16.60;99.90;;;;;;5075234;28;20020;-84
2023/10/26 01:51:37;;;;;;;12.23;2.45;;;16.60;99.90;;;;;;5075039;28;20017;-84
2023/10/26 01:54:03;;;;;;;8.30;2.40;;;16.60;99.90;;;;;;5074874;28;20103;-83
2023/10/26 01:56:32;;;;;;;13.45;3.13;;;16.60;99.90;;;;;;5074911;28;20055;-83
2023/10/26 01:58:58;;;;;;;9.27;2.80;;;16.60;99.90;;;;;;5074703;28;20052;-81
2023/10/26 02:01:24;;;;;;;7.22;2.72;;;16.60;99.90;;;;;;5074647;28;20412;-82
2023/10/26 02:03:51;;;;;;;7.38;2.60;;;16.60;99.90;;;;;;5074797;28;20431;-82
2023/10/26 02:06:17;;;;;;;16.77;2.83;;;16.60;99.90;;;;;;5074997;28;20024;-80
2023/10/26 02:08:43;;;;;;;9.45;2.60;;;16.60;99.90;;;;;;5074799;28;20523;-80
2023/10/26 02:11:08;;;;;;;13.00;2.60;;;16.60;99.90;;;;;;5074896;28;20055;-84
2023/10/26 02:13:35;;;;;;;7.47;2.38;;;16.60;99.90;;;;;;5074340;28;20031;-83
2023/10/26 02:16:02;;;;;;;8.23;2.22;;;16.60;99.90;;;;;;5074537;28;20044;-84
2023/10/26 02:18:29;;;;;;;8.90;2.30;;;16.60;99.90;;;;;;5074780;28;20062;-82
2023/10/26 02:20:55;;;;;;;10.68;2.40;;;16.60;99.90;;;;;;5074587;28;20029;-82
2023/10/26 02:23:21;;;;;;;12.77;3.45;;;16.60;99.90;;;;;;5074501;28;20020;-80
2023/10/26 02:25:47;;;;;;;18.48;2.35;;;16.60;99.90;;;;;;5074495;28;20035;-81
2023/10/26 02:28:16;;;;;;;6.68;2.17;;;16.60;99.90;;;;;;5074492;28;20066;-81
2023/10/26 02:30:45;;;;;;;12.20;2.85;;;16.60;99.90;;;;;;5074332;28;20067;-82
2023/10/26 02:33:11;;;;;;;9.63;2.15;;;16.60;99.90;;;;;;5074170;28;20037;-82
2023/10/26 02:35:40;;;;;;;11.00;2.40;;;16.60;99.90;;;;;;5074055;28;20035;-81
2023/10/26 02:38:06;;;;;;;11.05;2.35;;;16.60;99.90;;;;;;5074290;28;20020;-83
2023/10/26 02:40:34;;;;;;;9.32;2.35;;;16.60;99.90;;;;;;5074258;28;20022;-81
2023/10/26 02:43:00;;;;;;;6.57;2.08;;;16.60;99.90;;;;;;5074450;28;20032;-81
2023/10/26 02:45:26;;;;;;;8.68;2.08;;;16.60;99.90;;;;;;5073871;28;20033;-80
2023/10/26 02:47:52;;;;;;;9.90;2.47;;;16.60;99.90;;;;;;5056144;28;20026;-81
2023/10/26 02:50:20;;;;;;;4.90;2.05;;;16.60;99.90;;;;;;5073699;28;20036;-80
2023/10/26 02:52:46;;;;;;;5.85;2.15;;;16.60;99.90;;;;;;5073955;28;20376;-81
2023/10/26 02:55:12;;;;;;;5.78;2.38;;;16.60;99.90;;;;;;5074088;28;20040;-82
2023/10/26 02:57:38;;;;;;;5.70;1.85;;;16.50;99.90;;;;;;5074148;28;20103;-79
2023/10/26 03:00:05;;;;;;;5.90;2.35;;;16.60;99.90;;;;;;5074020;28;20047;-79
2023/10/26 03:02:34;;;;;;;12.15;2.78;;;16.50;99.90;;;;;;5073761;28;20442;-82
2023/10/26 03:05:02;;;;;;;11.48;2.75;;;16.60;99.90;;;;;;5073977;28;20016;-80
2023/10/26 03:07:28;;;;;;;11.45;2.78;;;16.50;99.90;;;;;;5073614;28;20063;-80
2023/10/26 03:09:54;;;;;;;6.53;2.40;;;16.50;99.90;;;;;;5073236;28;20433;-80
2023/10/26 03:12:24;;;;;;;7.13;2.75;;;16.50;99.90;;;;;;5073523;28;20100;-82
2023/10/26 03:14:50;;;;;;;6.72;2.05;;;16.50;99.90;;;;;;5073586;28;20040;-82
2023/10/26 03:17:15;;;;;;;10.88;3.40;;;16.50;99.90;;;;;;5073382;28;20027;-82
2023/10/26 03:19:42;;;;;;;17.02;15.40;;;16.50;99.90;;;;;;5073014;28;20025;-80
2023/10/26 03:22:14;;;;;;;9.63;5.80;;;16.50;99.90;;;;;;5073345;28;20028;-83
2023/10/26 03:24:39;;;;;;;10.13;3.60;;;16.50;99.90;;;;;;5073071;28;20025;-83
2023/10/26 03:27:05;;;;;;;12.00;3.17;;;16.50;99.90;;;;;;5073408;28;20032;-82
2023/10/26 03:29:34;;;;;;;10.70;5.38;;;16.50;99.90;;;;;;5073447;28;20021;-81
2023/10/26 03:32:03;;;;;;;9.05;4.00;;;16.50;99.90;;;;;;5073107;28;20013;-81
2023/10/26 03:34:32;;;;;;;8.55;3.42;;;16.50;99.90;;;;;;5073200;28;20385;-82
2023/10/26 03:36:57;;;;;;;9.02;3.30;;;16.50;99.90;;;;;;5055191;28;20396;-81
2023/10/26 03:39:23;;;;;;;10.05;3.13;;;16.40;99.90;;;;;;5072989;28;20024;-79
2023/10/26 03:41:49;;;;;;;8.73;3.17;;;16.40;99.90;;;;;;5073244;28;20028;-81
2023/10/26 03:44:15;;;;;;;14.63;3.67;;;16.50;99.90;;;;;;5072364;28;20032;-79
2023/10/26 03:46:48;;;;;;;5.90;3.05;;;16.40;99.90;;;;;;5072702;28;20027;-79
2023/10/26 03:49:14;;;;;;;11.38;2.78;;;16.40;99.90;;;;;;5073335;28;20025;-81
2023/10/26 03:51:40;;;;;;;9.40;3.13;;;16.50;99.90;;;;;;5073130;28;20020;-82
2023/10/26 03:54:06;;;;;;;5.90;2.53;;;16.40;99.90;;;;;;5073137;28;20020;-84
2023/10/26 03:56:32;;;;;;;6.65;2.47;;;16.40;99.90;;;;;;5072785;28;20082;-83
2023/10/26 03:58:57;;;;;;;5.80;2.60;;;16.40;99.90;;;;;;5073143;28;20020;-82
2023/10/26 04:01:23;;;;;;;7.68;3.20;;;16.40;99.90;;;;;;5073286;28;20025;-80
2023/10/26 04:03:49;;;;;;;9.70;2.90;;;16.40;99.90;;;;;;5073097;28;20024;-79
2023/10/26 04:06:15;;;;;;;7.20;3.40;;;16.40;99.90;;;;;;5073033;28;20385;-81
2023/10/26 04:08:41;;;;;;;10.07;2.85;;;16.30;99.90;;;;;;5072475;28;20056;-80
2023/10/26 04:11:14;;;;;;;7.85;2.65;;;16.30;99.90;;;;;;5073128;28;20048;-79
2023/10/26 04:13:40;;;;;;;9.82;2.53;;;16.30;99.90;;;;;;5072894;28;20029;-82
2023/10/26 04:16:07;;;;;;;4.32;2.33;;;16.30;99.90;;;;;;5072996;28;20036;-80
2023/10/26 04:18:36;;;;;;;6.82;2.67;;;16.30;99.90;;;;;;5072675;28;20024;-81
2023/10/26 04:21:02;;;;;;;9.15;2.90;;;16.30;99.90;;;;;;5072688;28;20013;-80
2023/10/26 04:23:28;;;;;;;9.20;2.22;;;16.30;99.90;;;;;;5072393;28;20434;-81
2023/10/26 04:25:54;;;;;;;8.73;2.80;;;16.30;99.90;;;;;;5072571;28;20082;-82
2023/10/26 04:28:20;;;;;;;9.02;2.80;;;16.30;99.90;;;;;;5072433;28;20492;-82
2023/10/26 04:30:53;;;;;;;10.65;2.80;;;16.30;99.90;;;;;;5072756;28;20024;-80
2023/10/26 04:33:19;;;;;;;6.75;2.60;;;16.30;99.90;;;;;;5072379;28;20041;-79
2023/10/26 04:35:46;;;;;;;9.10;2.47;;;16.30;99.90;;;;;;5072146;28;20492;-79
2023/10/26 04:38:12;;;;;;;9.45;2.60;;;16.30;99.90;;;;;;5072578;28;20027;-81
2023/10/26 04:40:39;;;;;;;11.52;2.95;;;16.30;99.90;;;;;;5074006;28;20024;-81
2023/10/26 04:43:11;;;;;;;10.75;2.85;;;16.30;99.90;;;;;;5072078;28;20052;-82
2023/10/26 04:45:37;;;;;;;11.80;3.05;;;16.30;99.90;;;;;;5072405;28;20077;-82
2023/10/26 04:48:03;;;;;;;11.93;3.30;;;16.30;99.90;;;;;;5072327;28;20028;-79
2023/10/26 04:50:32;;;;;;;9.95;2.78;;;16.30;99.90;;;;;;5072402;28;20031;-77
2023/10/26 04:52:59;;;;;;;6.38;3.05;;;16.30;99.90;;;;;;5072287;28;20035;-81
2023/10/26 04:55:30;;;;;;;10.90;3.13;;;16.30;99.90;;;;;;5074336;28;20036;-81
2023/10/26 04:57:56;;;;;;;7.32;2.80;;;16.30;99.90;;;;;;5075880;28;20027;-79
2023/10/26 05:00:26;;;;;;;4.80;2.60;;;16.30;99.90;;;;;;5075893;28;20471;-81
2023/10/26 05:02:52;;;;;;;9.68;2.60;;;16.30;99.90;;;;;;5075748;28;20013;-82
2023/10/26 05:05:18;;;;;;;9.90;2.75;;;16.30;99.90;;;;;;5075858;28;20024;-80
2023/10/26 05:07:45;;;;;;;9.27;2.75;;;16.30;99.90;;;;;;5076033;28;20024;-81
2023/10/26 05:10:11;;;;;;;9.60;2.92;;;16.30;99.90;;;;;;5075957;28;20052;-81
2023/10/26 05:12:40;;;;;;;11.60;2.90;;;16.30;99.90;;;;;;5076146;28;20446;-83
2023/10/26 05:15:08;;;;;;;5.53;2.50;;;16.30;99.90;;;;;;5075607;28;20039;-74
2023/10/26 05:17:36;;;;;;;11.23;2.58;;;16.30;99.90;;;;;;5075574;28;20024;-75
2023/10/26 05:20:08;;;;;;;8.57;2.80;;;16.40;99.90;;;;;;5075762;28;20059;-76
2023/10/26 05:22:33;;;;;;;10.25;2.72;;;16.40;99.90;;;;;;5075727;28;20135;-77
2023/10/26 05:25:04;;;;;;;6.20;2.63;;;16.30;99.90;;;;;;5075439;28;20449;-76
2023/10/26 05:27:30;;;;;;;9.57;3.35;;;16.40;99.90;;;;;;5075670;28;20111;-76
2023/10/26 05:29:55;;;;;;;6.65;2.40;;;16.40;99.90;;;;;;5075481;28;20396;-76
2023/10/26 05:32:21;;;;;;;8.48;2.67;;;16.40;99.90;;;;;;5075335;28;20027;-75
2023/10/26 05:34:47;;;;;;;14.65;2.63;;;16.40;99.90;;;;;;5075411;28;20071;-75
2023/10/26 05:37:13;;;;;;;10.05;2.35;;;16.40;99.90;;;;;;5075359;28;20032;-76
2023/10/26 05:39:39;;;;;;;9.50;2.95;;;16.40;99.90;;;;;;5075273;28;20021;-75
2023/10/26 05:42:05;;;;;;;15.85;3.05;;;16.40;99.90;;;;;;5075011;28;20024;-76
2023/10/26 05:44:33;;;;;;;12.52;2.83;;;16.40;99.90;;;;;;5074890;28;20028;-76
2023/10/26 05:47:01;;;;;;;10.90;2.50;;;16.50;99.90;;;;;;5057041;28;20024;-75
2023/10/26 05:49:27;;;;;;;10.68;2.83;;;16.40;99.90;;;;;;5074973;28;20476;-75
2023/10/26 05:52:01;;;;;;;7.43;2.63;;;16.40;99.90;;;;;;5071291;28;20115;-75
2023/10/26 05:54:27;;;;;;;8.98;3.03;;;16.40;99.90;;;;;;5074091;28;20402;-78
2023/10/26 05:56:53;;;;;;;11.18;2.88;;;16.40;99.90;;;;;;5022963;28;20108;-75
2023/10/26 05:59:26;;;;;;;8.45;2.60;;;16.40;99.90;;;;;;5074078;28;20070;-75
2023/10/26 06:01:52;;;;;;;7.78;3.08;;;16.40;99.90;;;;;;5074114;28;20048;-78
2023/10/26 06:04:18;;;;;;;10.07;2.83;;;16.40;99.90;;;;;;5074518;28;20450;-75
2023/10/26 06:06:44;;;;;;;14.68;3.47;;;16.40;99.90;;;;;;5073957;28;20516;-75
2023/10/26 06:09:10;;;;;;;8.77;2.75;;;16.40;99.90;;;;;;5074405;28;20022;-75
2023/10/26 06:11:37;;;;;;;8.85;3.03;;;16.40;99.90;;;;;;5074206;28;20100;-76
2023/10/26 06:14:04;;;;;;;9.63;3.50;;;16.50;99.90;;;;;;5073994;28;20036;-77
2023/10/26 06:16:30;;;;;;;10.73;3.03;;;16.40;99.90;;;;;;5074282;28;20079;-80
2023/10/26 06:18:55;;;;;;;7.80;3.10;;;16.50;99.90;;;;;;5074453;28;20051;-80
2023/10/26 06:21:24;;;;;;;9.10;2.85;;;16.50;99.90;;;;;;5073524;28;20540;-75
2023/10/26 06:23:50;;;;;;;12.05;3.38;;;16.50;99.90;;;;;;5055864;28;20021;-75
2023/10/26 06:26:15;;;;;;;12.45;3.35;;;16.50;99.90;;;;;;5074049;28;20031;-75
2023/10/26 06:28:46;;;;;;;9.43;3.08;;;16.50;99.90;;;;;;5074302;28;20027;-75
2023/10/26 06:31:16;;;;;;;10.93;2.90;;;16.50;99.90;;;;;;5074337;28;20020;-76
2023/10/26 06:33:45;;;;;;;11.30;3.00;;;16.50;99.90;;;;;;5074048;28;20497;-75
2023/10/26 06:36:10;;;;;;;6.43;3.00;;;16.50;99.90;;;;;;5073882;28;20114;-74
2023/10/26 06:38:38;;;;;;;6.78;2.95;;;16.60;99.90;;;;;;5072529;28;20480;-75
2023/10/26 06:41:07;;;;;;;15.02;3.83;;;16.60;99.90;;;;;;5074034;28;20380;-75
2023/10/26 06:43:36;;;;;;;7.22;2.90;;;16.60;99.90;;;;;;5074109;28;20043;-75
2023/10/26 06:46:03;;;;;;;6.75;3.05;;;16.60;99.90;;;;;;5073195;28;20028;-75
2023/10/26 06:48:29;;;;;;;11.30;3.08;;;16.60;99.90;;;;;;5068950;28;20027;-75
2023/10/26 06:51:02;;;;;;;9.73;3.20;;;16.60;99.90;;;;;;5073808;28;20025;-75
2023/10/26 06:53:34;;;;;;;6.95;2.80;;;16.60;99.90;;;;;;5073981;28;20055;-75
2023/10/26 06:56:00;;;;;;;9.07;3.10;;;16.60;99.90;;;;;;5073960;28;20028;-75
2023/10/26 06:58:29;;;;;;;7.70;3.20;;;16.60;99.90;;;;;;5073923;28;20430;-75
2023/10/26 07:00:55;;;;;;;8.35;2.75;;;16.60;99.90;;;;;;5055724;28;20040;-74
2023/10/26 07:03:21;;;;;;;8.55;3.25;;;16.70;99.90;;;;;;5073654;28;20102;-75
2023/10/26 07:05:52;;;;;;;11.13;3.13;;;16.70;99.90;;;;;;5073393;28;20548;-75
2023/10/26 07:08:21;;;;;;;7.75;3.03;;;16.70;99.90;;;;;;5073730;28;20381;-75
2023/10/26 07:10:47;;;;;;;15.50;3.53;;;16.70;99.90;;;;;;5073715;28;20385;-75
2023/10/26 07:13:13;;;;;;;14.38;3.55;;;16.70;99.90;;;;;;5073675;28;20021;-75
2023/10/26 07:15:39;;;;;;;11.05;3.13;;;16.80;99.90;;;;;;5073494;28;20058;-76
2023/10/26 07:18:08;;;;;;;6.93;2.72;;;16.80;99.90;;;;;;5072340;28;20028;-80
2023/10/26 07:20:36;;;;;;;10.32;3.10;;;16.80;99.90;;;;;;5073108;28;20514;-74
2023/10/26 07:23:05;;;;;;;10.18;4.07;;;16.80;99.90;;;;;;5072220;28;20408;-76
2023/10/26 07:25:35;;;;;;;14.35;2.97;;;16.80;99.90;;;;;;5072689;28;20044;-77
2023/10/26 07:28:02;;;;;;;12.43;3.47;;;16.80;99.90;;;;;;5073147;28;20028;-76
2023/10/26 07:30:31;;;;;;;9.85;3.83;;;16.80;99.90;;;;;;5073629;28;20028;-75
2023/10/26 07:32:57;;;;;;;12.38;3.33;;;16.80;99.90;;;;;;5067378;28;20040;-77
2023/10/26 07:35:23;;;;;;;14.18;3.58;;;16.90;99.90;;;;;;5053152;28;20029;-77
2023/10/26 07:37:51;;;;;;;13.43;3.40;;;16.90;99.90;;;;;;5051499;28;20412;-76
2023/10/26 07:40:17;;;;;;;8.27;2.90;;;16.90;99.90;;;;;;5053250;28;20024;-76
2023/10/26 07:42:46;;;;;;;6.28;2.78;;;17.00;99.90;;;;;;5053412;28;20024;-76
2023/10/26 07:45:14;;;;;;;18.02;3.40;;;17.00;99.90;;;;;;5053178;28;20039;-77
2023/10/26 07:47:40;;;;;;;13.10;3.55;;;17.00;99.90;;;;;;5053432;28;20449;-77
2023/10/26 07:50:06;;;;;;;11.25;3.72;;;17.00;99.90;;;;;;5053467;28;20032;-77
2023/10/26 07:52:32;;;;;;;10.13;3.10;;;17.00;99.90;;;;;;5053507;28;20025;-79
2023/10/26 07:55:00;;;;;;;15.05;3.70;;;17.10;99.90;;;;;;5053251;28;20095;-78
2023/10/26 07:57:26;;;;;;;15.32;4.45;;;17.20;99.90;;;;;;5035236;28;20079;-77
2023/10/26 07:59:52;;;;;;;12.20;2.78;;;17.20;99.90;;;;;;5053156;28;20021;-78
2023/10/26 08:02:20;;;;;;;13.38;3.92;;;17.20;99.90;;;;;;5053150;28;20551;-76
2023/10/26 08:04:49;;;;;;;18.85;3.30;;;17.20;99.90;;;;;;5052979;28;20028;-76
2023/10/26 08:07:15;;;;;;;10.55;2.65;;;17.20;99.90;;;;;;5053283;28;20067;-77
2023/10/26 08:09:41;;;;;;;8.52;2.50;;;17.20;99.90;;;;;;5052913;28;20385;-77
2023/10/26 08:12:07;;;;;;;11.98;2.85;;;17.30;99.90;;;;;;5052887;28;20044;-75
2023/10/26 08:14:33;;;;;;;12.77;2.58;;;17.30;99.90;;;;;;5052626;28;20037;-75
2023/10/26 08:16:59;;;;;;;5.70;2.70;;;17.30;99.90;;;;;;5052957;28;20388;-79
2023/10/26 08:19:25;;;;;;;8.88;2.65;;;17.40;99.90;;;;;;5052317;28;20037;-76
2023/10/26 08:21:50;;;;;;;14.75;3.20;;;17.40;99.90;;;;;;5052991;28;20029;-76
2023/10/26 08:24:16;;;;;;;14.48;2.45;;;17.40;99.90;;;;;;5052729;28;20036;-76
2023/10/26 08:26:42;;;;;;;10.45;2.20;;;17.50;99.90;;;;;;5052790;28;20025;-75
2023/10/26 08:29:11;;;;;;;7.00;2.08;;;17.50;99.90;;;;;;5052654;28;20025;-74
2023/10/26 08:31:38;;;;;;;8.45;2.35;;;17.50;99.90;;;;;;5056961;28;20021;-77
2023/10/26 08:34:04;;;;;;;6.00;1.77;;;17.60;99.90;;;;;;5056491;28;20057;-75
2023/10/26 08:36:33;;;;;;;12.68;1.38;;;17.60;99.90;;;;;;5056588;28;20071;-75
2023/10/26 08:38:59;;;;;;;9.45;1.60;;;17.70;99.90;;;;;;5056713;28;20060;-75
2023/10/26 08:41:25;;;;;;;10.00;1.70;;;17.70;99.90;;;;;;5056665;28;20048;-76
2023/10/26 08:43:51;;;;;;;4.53;1.20;;;17.80;99.90;;;;;;5056961;28;20083;-76
2023/10/26 08:46:18;;;;;;;6.93;1.30;;;17.80;99.90;;;;;;5056468;28;20428;-77
2023/10/26 08:48:46;;;;;;;6.35;1.20;;;17.80;99.90;;;;;;5056567;28;20075;-75
2023/10/26 08:51:14;;;;;;;8.45;1.17;;;17.90;99.90;;;;;;5056301;28;20113;-76
2023/10/26 08:53:40;;;;;;;3.83;1.00;;;17.90;99.90;;;;;;5056528;28;20092;-75
2023/10/26 08:56:11;;;;;;;5.57;0.95;;;17.90;99.90;;;;;;5056157;28;20116;-75
2023/10/26 08:58:37;;;;;;;6.40;1.00;;;17.90;99.90;;;;;;5056256;28;20455;-74
2023/10/26 09:01:06;;;;;;;5.28;0.93;;;17.90;99.90;;;;;;5043585;28;20381;-75
2023/10/26 09:03:37;;;;;;;8.75;2.40;;;18.00;99.90;;;;;;5036566;28;20022;-75
2023/10/26 09:06:04;;;;;;;4.78;1.00;;;18.00;99.90;;;;;;5036269;28;20109;-75
2023/10/26 09:08:31;;;;;;;5.40;1.50;;;18.00;99.90;;;;;;5035682;28;20045;-75
2023/10/26 09:10:57;;;;;;;5.32;1.27;;;18.00;99.90;;;;;;5035937;28;20065;-75
2023/10/26 09:13:28;;;;;;;5.15;1.25;;;18.10;99.90;;;;;;5035689;28;20469;-75
2023/10/26 09:15:59;;;;;;;5.07;1.10;;;18.10;99.90;;;;;;5043333;28;20390;-75
2023/10/26 09:18:27;;;;;;;5.50;1.30;;;18.10;99.90;;;;;;5047934;28;20036;-75
2023/10/26 09:21:07;;;;;;;6.63;1.10;;;18.10;99.90;;;;;;5046285;28;20021;-75
2023/10/26 09:23:35;;;;;;;5.53;1.77;;;18.20;99.90;;;;;;5038615;28;20445;-75
2023/10/26 09:26:07;;;;;;;6.40;1.20;;;18.10;99.90;;;;;;5035660;28;20068;-75
2023/10/26 09:28:55;;;;;;;6.25;1.35;;;18.20;99.90;;;;;;5035820;28;20421;-75
2023/10/26 09:31:24;;;;;;;9.52;1.73;;;18.20;99.90;;;;;;5035615;28;20371;-75
2023/10/26 09:33:54;;;;;;;3.88;1.33;;;18.20;99.90;;;;;;5045657;28;20052;-75
2023/10/26 09:36:22;;;;;;;10.73;1.20;;;18.20;99.90;;;;;;5052096;28;20033;-75
2023/10/26 09:38:48;;;;;;;11.30;1.70;;;18.20;99.90;;;;;;5052679;28;20028;-75
2023/10/26 09:41:16;;;;;;;15.05;1.55;;;18.20;99.90;;;;;;5053571;28;20033;-76
2023/10/26 09:43:48;;;;;;;8.32;1.40;;;18.20;99.90;;;;;;5054151;28;20029;-75
2023/10/26 09:46:17;;;;;;;10.40;2.05;;;18.20;99.90;;;;;;5052398;28;20025;-76
2023/10/26 09:48:46;;;;;;;13.20;1.70;;;18.30;99.90;;;;;;5051893;28;20100;-75
2023/10/26 09:51:15;;;;;;;9.18;1.60;;;18.30;99.90;;;;;;5052389;28;20086;-76
2023/10/26 09:53:42;;;;;;;12.18;1.88;;;18.30;99.90;;;;;;5054024;28;20075;-76
2023/10/26 09:56:14;;;;;;;6.03;1.48;;;18.30;99.90;;;;;;5055209;28;20420;-75
2023/10/26 09:58:41;;;;;;;5.90;1.30;;;18.30;99.90;;;;;;5055184;28;20021;-75
2023/10/26 10:01:37;;;;;;;9.52;1.38;;;18.40;99.90;;;;;;5054994;28;20148;-75
2023/10/26 10:04:07;;;;;;;12.48;1.63;;;18.40;99.90;;;;;;5054883;28;20051;-75
2023/10/26 10:06:43;;;;;;;7.70;1.92;;;18.40;99.90;;;;;;5054869;28;20029;-74
2023/10/26 10:09:12;;;;;;;19.70;1.70;;;18.40;99.90;;;;;;5054701;28;20032;-74
2023/10/26 10:11:41;;;;;;;8.07;1.60;;;18.40;99.90;;;;;;5054627;28;20379;-75
2023/10/26 10:14:07;;;;;;;6.60;1.33;;;18.50;99.90;;;;;;5054731;28;20036;-75
2023/10/26 10:16:36;;;;;;;7.95;1.42;;;18.50;99.90;;;;;;5054768;28;20119;-75
2023/10/26 10:19:22;;;;;;;11.40;1.70;;;18.50;99.90;;;;;;5054817;28;20401;-75
2023/10/26 10:21:49;;;;;;;5.45;1.23;;;18.60;99.90;;;;;;5054733;28;20025;-74
2023/10/26 10:24:37;;;;;;;4.85;1.45;;;18.60;99.90;;;;;;5054460;28;20025;-74
2023/10/26 10:27:12;;;;;;;3.05;1.17;;;18.60;99.90;;;;;;5054317;28;20028;-75
2023/10/26 10:29:41;;;;;;;2.97;1.00;;;18.70;99.90;;;;;;5054581;28;20025;-75
2023/10/26 10:32:10;;;;;;;6.25;1.20;;;18.70;99.90;;;;;;5054545;28;20029;-75
2023/10/26 10:34:46;;;;;;;5.35;1.20;;;18.70;99.90;;;;;;5054155;28;20106;-75
2023/10/26 10:37:13;;;;;;;2.53;1.20;;;18.70;99.90;;;;;;5036459;28;20032;-75
2023/10/26 10:39:59;;;;;;;4.50;1.02;;;18.80;99.90;;;;;;5054124;28;20381;-75
2023/10/26 10:42:26;;;;;;;8.45;1.38;;;18.80;99.90;;;;;;5013003;28;20131;-75
2023/10/26 10:44:52;;;;;;;3.53;1.10;;;18.80;99.90;;;;;;5053552;28;20025;-75
2023/10/26 10:47:27;;;;;;;6.80;1.40;;;18.80;99.90;;;;;;5054220;28;20082;-75
2023/10/26 10:50:16;;;;;;;6.97;1.30;;;18.90;99.90;;;;;;5054297;28;20021;-75
2023/10/26 10:52:43;;;;;;;8.25;1.20;;;18.90;99.90;;;;;;5053770;28;20025;-75
2023/10/26 10:55:09;;;;;;;7.38;1.25;;;18.90;99.90;;;;;;5054034;28;20392;-75
2023/10/26 10:58:01;;;;;;;8.57;1.73;;;18.90;99.90;;;;;;5053931;28;20027;-75
2023/10/26 11:00:44;;;;;;;9.98;1.60;;;18.90;99.90;;;;;;5053691;28;20045;-76
2023/10/26 11:03:19;;;;;;;4.95;1.70;;;18.90;99.90;;;;;;5053762;28;20029;-76
2023/10/26 11:05:45;;;;;;;7.63;1.63;;;19.00;99.90;;;;;;5053809;28;20100;-76
2023/10/26 11:08:11;;;;;;;6.88;1.58;;;19.00;99.90;;;;;;5054164;28;20072;-76
2023/10/26 11:10:38;;;;;;;5.40;1.65;;;19.00;99.90;;;;;;5053655;28;20032;-76
2023/10/26 11:13:07;;;;;;;8.48;2.40;;;19.00;99.90;;;;;;5053433;28;20051;-76
2023/10/26 11:15:37;;;;;;;7.15;2.30;;;19.00;99.90;;;;;;5035238;28;20060;-76
2023/10/26 11:18:07;;;;;;;9.85;1.83;;;19.00;99.90;;;;;;5053553;28;20358;-76
2023/10/26 11:20:42;;;;;;;11.27;2.05;;;19.00;99.90;;;;;;5053531;28;20017;-77
2023/10/26 11:23:13;;;;;;;10.98;2.05;;;19.00;99.90;;;;;;5053803;28;20098;-75
2023/10/26 11:25:39;;;;;;;7.90;2.10;;;19.00;99.90;;;;;;5053505;28;20032;-75
2023/10/26 11:28:06;;;;;;;5.97;1.90;;;19.00;99.90;;;;;;5053497;28;20021;-76
2023/10/26 11:30:57;;;;;;;10.38;2.08;;;19.00;99.90;;;;;;5053119;28;20381;-77
2023/10/26 11:33:33;;;;;;;9.77;1.60;;;19.00;99.90;;;;;;5052978;28;20077;-75
2023/10/26 11:36:06;;;;;;;8.70;2.03;;;19.00;99.90;;;;;;5052878;28;20091;-77
2023/10/26 11:38:32;;;;;;;9.38;1.50;;;19.00;99.90;;;;;;5052745;28;20036;-76
2023/10/26 11:40:57;;;;;;;6.43;1.63;;;19.00;99.90;;;;;;5053009;28;20035;-75
2023/10/26 11:43:44;;;;;;;9.50;2.00;;;19.00;99.90;;;;;;5053138;28;20036;-75
2023/10/26 11:46:12;;;;;;;6.10;2.38;;;19.00;99.90;;;;;;5052803;28;20044;-76
2023/10/26 11:48:40;;;;;;;9.13;2.22;;;18.90;99.90;;;;;;5052810;28;20021;-77
2023/10/26 11:51:08;;;;;;;8.35;1.90;;;19.00;99.90;;;;;;5052968;28;20029;-75
2023/10/26 11:53:35;;;;;;;6.32;1.77;;;19.00;99.90;;;;;;5053076;28;20471;-76
2023/10/26 11:56:01;;;;;;;7.00;2.00;;;19.00;99.90;;;;;;5053114;28;20364;-77
2023/10/26 11:58:27;;;;;;;9.32;1.77;;;19.00;99.90;;;;;;5053220;28;20032;-86
2023/10/26 12:00:53;;;;;;;12.07;1.80;;;19.10;99.90;;;;;;5053550;28;20021;-85
2023/10/26 12:03:18;;;;;;;4.85;1.50;;;19.10;99.90;;;;;;5057653;28;20017;-83
2023/10/26 12:05:44;;;;;;;7.13;1.83;;;19.10;99.90;;;;;;5056079;28;20583;-83
2023/10/26 12:08:17;;;;;;;8.23;2.90;;;19.10;99.90;;;;;;5057621;28;20075;-84
2023/10/26 12:10:43;;;;;;;;;;;19.20;99.90;;;;;;5053173;28;20107;-85
2023/10/26 12:13:09;;;;;;;7.00;1.90;;;19.20;99.90;;;;;;5053071;28;19947;-84
2023/10/26 12:15:37;;;;;;;5.50;1.40;;;19.20;99.90;;;;;;5052971;28;20079;-82
2023/10/26 12:18:03;;;;;;;7.85;1.70;;;19.20;99.90;;;;;;5053015;28;20064;-85
2023/10/26 12:20:30;;;;;;;6.80;2.10;;;19.10;99.30;;;;;;5052850;28;20035;-82
2023/10/26 12:22:56;;;;;;;4.63;1.85;;;19.10;98.50;;;;;;5030411;28;20463;-84
2023/10/26 12:25:21;;;;;;;9.23;1.83;;;19.10;98.60;;;;;;5011454;28;20061;-84
2023/10/26 12:27:50;;;;;;;10.52;2.17;;;19.00;99.00;;;;;;5012803;28;20035;-84
2023/10/26 12:30:16;;;;;;;8.00;1.90;;;19.00;99.20;;;;;;5049622;28;20930;-85
2023/10/26 12:32:41;;;;;;;8.95;2.10;;;19.00;99.70;;;;;;5052329;28;20033;-86
2023/10/26 12:35:07;;;;;;;6.05;1.60;;;19.00;99.90;;;;;;5051725;28;20037;-84
2023/10/26 12:37:37;;;;;;;5.85;1.88;;;19.00;99.50;;;;;;5052265;28;20055;-85
2023/10/26 12:40:08;;;;;;;6.72;1.83;;;19.00;99.00;;;;;;5052184;28;20029;-85
2023/10/26 12:42:35;;;;;;;6.95;1.80;;;19.00;99.10;;;;;;5052632;28;20068;-83
2023/10/26 12:45:01;;;;;;;8.98;1.95;;;19.00;99.00;;;;;;5052726;28;20444;-84
2023/10/26 12:47:27;;;;;;;5.82;1.88;;;19.00;99.20;;;;;;5052538;28;20055;-85